Time;durP1;ratioP1;P1;durP2;ratioP2;P2;SDS_P1;SDS_P2;PMS_P1;PMS_P2;Temp;Humidity;BMP_temperature;BMP_pressure;BME280_temperature;BME280_humidity;BME280_pressure;Samples;Min_cycle;Max_cycle;Signal;HPM_P1;HPM_P2
2021/01/19 00:01:43;;;;;;;;;;;;;;;7.08;51.27;100630.97;4690774;30;19939;-75
2021/01/19 00:04:10;;;;;;;;;;;;;;;7.08;51.55;100636.25;4687658;30;20411;-75
2021/01/19 00:06:37;;;;;;;;;;;;;;;7.06;51.70;100636.25;4687711;30;20041;-75
2021/01/19 00:09:05;;;;;;;;;;;;;;;7.04;51.61;100621.38;4690214;30;19931;-75
2021/01/19 00:11:32;;;;;;;;;;;;;;;7.02;52.01;100624.03;4688905;30;19935;-74
2021/01/19 00:13:59;;;;;;;;;;;;;;;7.02;51.94;100625.81;4675682;30;19982;-75
2021/01/19 00:16:26;;;;;;;;;;;;;;;6.99;51.97;100626.72;4687932;30;20022;-75
2021/01/19 00:18:53;;;;;;;;;;;;;;;6.99;51.68;100631.97;4683917;30;19942;-75
2021/01/19 00:21:19;;;;;;;;;;;;;;;7.00;51.91;100630.19;4689686;30;19957;-75
2021/01/19 00:23:46;;;;;;;;;;;;;;;6.98;52.21;100627.59;4690321;30;19977;-75
2021/01/19 00:26:14;;;;;;;;;;;;;;;6.96;52.26;100625.00;4692932;30;19935;-75
2021/01/19 00:28:41;;;;;;;;;;;;;;;6.96;51.90;100625.00;4692261;30;19965;-75
2021/01/19 00:31:08;;;;;;;;;;;;;;;7.14;50.79;100618.59;4692575;30;19998;-75
2021/01/19 00:33:35;;;;;;;;;;;;;;;7.26;49.15;100625.44;4675596;30;19942;-74
2021/01/19 00:36:02;;;;;;;;;;;;;;;7.32;48.04;100625.31;4694262;30;19931;-75
2021/01/19 00:38:29;;;;;;;;;;;;;;;7.38;46.90;100624.38;4692731;30;20122;-75
2021/01/19 00:40:56;;;;;;;;;;;;;;;7.44;46.18;100636.56;4689797;30;19947;-75
2021/01/19 00:43:24;;;;;;;;;;;;;;;7.47;45.42;100636.50;4693973;30;19938;-74
2021/01/19 00:45:50;;;;;;;;;;;;;;;7.50;44.98;100638.22;4690048;30;20031;-75
2021/01/19 00:48:17;;;;;;;;;;;;;;;7.52;44.68;100644.34;4689749;30;19966;-74
2021/01/19 00:50:44;;;;;;;;;;;;;;;7.57;44.11;100651.25;4678238;30;19939;-75
2021/01/19 00:53:11;;;;;;;;;;;;;;;7.61;43.53;100646.81;4694509;30;19935;-75
2021/01/19 00:55:38;;;;;;;;;;;;;;;7.47;43.56;100647.03;4693329;30;19981;-75
2021/01/19 00:58:06;;;;;;;;;;;;;;;7.39;44.18;100638.38;4694141;30;19938;-75
2021/01/19 01:00:37;;;;;;;;;;;;;;;7.25;45.15;100643.84;4687594;30;19994;-75
2021/01/19 01:03:04;;;;;;;;;;;;;;;7.19;46.26;100657.13;4687605;30;20438;-75
2021/01/19 01:05:31;;;;;;;;;;;;;;;7.13;46.64;100656.31;4691762;30;20386;-75
2021/01/19 01:08:01;;;;;;;;;;;;;;;7.10;47.04;100648.44;4688982;30;19938;-75
2021/01/19 01:10:28;;;;;;;;;;;;;;;7.06;47.44;100641.50;4674555;30;19989;-75
2021/01/19 01:12:56;;;;;;;;;;;;;;;7.03;47.72;100644.19;4688887;30;20013;-75
2021/01/19 01:15:29;;;;;;;;;;;;;;;7.01;47.69;100645.97;4687717;30;19946;-75
2021/01/19 01:17:57;;;;;;;;;;;;;;;6.98;48.04;100644.25;4689563;30;20295;-75
2021/01/19 01:20:24;;;;;;;;;;;;;;;6.96;48.24;100643.41;4693082;30;19935;-75
2021/01/19 01:22:50;;;;;;;;;;;;;;;6.96;48.57;100639.88;4692784;30;20494;-75
2021/01/19 01:25:17;;;;;;;;;;;;;;;6.95;48.69;100639.03;4691121;30;19974;-75
2021/01/19 01:27:45;;;;;;;;;;;;;;;6.93;49.20;100632.94;4687942;30;19943;-75
2021/01/19 01:30:16;;;;;;;;;;;;;;;6.90;49.06;100626.84;4689955;30;19935;-75
2021/01/19 01:32:43;;;;;;;;;;;;;;;6.89;49.23;100630.38;4693652;30;20314;-75
2021/01/19 01:35:12;;;;;;;;;;;;;;;6.88;49.31;100623.34;4690580;30;19978;-75
2021/01/19 01:37:46;;;;;;;;;;;;;;;6.87;49.74;100625.13;4694674;30;19935;-75
2021/01/19 01:40:16;;;;;;;;;;;;;;;6.86;50.07;100620.75;4694663;30;19992;-75
2021/01/19 01:42:48;;;;;;;;;;;;;;;6.87;50.03;100624.25;4686119;30;19963;-75
2021/01/19 01:45:18;;;;;;;;;;;;;;;6.85;50.02;100611.13;4686231;30;20033;-75
2021/01/19 01:47:45;;;;;;;;;;;;;;;6.84;50.50;100614.63;4691902;30;20018;-75
2021/01/19 01:50:13;;;;;;;;;;;;;;;6.83;50.28;100607.66;4694511;30;19935;-75
2021/01/19 01:52:59;;;;;;;;;;;;;;;6.82;50.38;100600.66;4694562;30;19950;-75
2021/01/19 01:55:28;;;;;;;;;;;;;;;6.80;50.61;100598.06;4692680;30;19931;-75
2021/01/19 01:57:55;;;;;;;;;;;;;;;6.80;50.50;100586.66;4688868;30;19938;-75
2021/01/19 02:00:22;;;;;;;;;;;;;;;6.78;50.67;100588.44;4690660;30;19950;-75
2021/01/19 02:02:50;;;;;;;;;;;;;;;6.78;50.75;100584.06;4695106;30;20345;-75
2021/01/19 02:05:18;;;;;;;;;;;;;;;6.76;51.00;100577.97;4691344;30;19939;-75
2021/01/19 02:08:06;;;;;;;;;;;;;;;6.77;51.06;100570.94;4691622;30;19939;-75
2021/01/19 02:10:37;;;;;;;;;;;;;;;6.77;51.11;100563.03;4683182;30;20398;-75
2021/01/19 02:13:10;;;;;;;;;;;;;;;6.75;51.34;100563.06;4684048;30;20155;-75
2021/01/19 02:15:38;;;;;;;;;;;;;;;6.75;51.17;100564.81;4691036;30;19946;-74
2021/01/19 02:18:10;;;;;;;;;;;;;;;6.74;51.12;100571.00;4691061;30;19943;-74
2021/01/19 02:20:55;;;;;;;;;;;;;;;6.72;51.77;100565.72;4688909;30;19965;-75
2021/01/19 02:23:31;;;;;;;;;;;;;;;6.70;51.58;100556.13;4690082;30;20001;-75
2021/01/19 02:26:13;;;;;;;;;;;;;;;6.69;51.69;100557.03;4687423;30;20799;-75
2021/01/19 02:28:42;;;;;;;;;;;;;;;6.68;51.74;100550.03;4683827;30;20306;-75
2021/01/19 02:31:15;;;;;;;;;;;;;;;6.69;51.54;100559.66;4689175;30;20114;-75
2021/01/19 02:33:48;;;;;;;;;;;;;;;6.69;51.87;100562.28;4687383;30;20042;-75
2021/01/19 02:36:20;;;;;;;;;;;;;;;6.67;51.82;100569.31;4691733;30;19978;-75
2021/01/19 02:38:53;;;;;;;;;;;;;;;6.66;51.80;100568.47;4688790;30;20026;-74
2021/01/19 02:41:20;;;;;;;;;;;;;;;6.65;52.13;100561.47;4685412;30;20030;-75
2021/01/19 02:43:56;;;;;;;;;;;;;;;6.64;51.92;100552.72;4689667;30;19931;-74
2021/01/19 02:46:23;;;;;;;;;;;;;;;6.62;52.16;100551.84;4671326;30;20309;-75
2021/01/19 02:48:51;;;;;;;;;;;;;;;6.64;52.25;100557.09;4689994;30;19942;-74
2021/01/19 02:51:18;;;;;;;;;;;;;;;6.63;52.25;100558.84;4690086;30;19935;-74
2021/01/19 02:53:45;;;;;;;;;;;;;;;6.61;52.35;100557.16;4693095;30;19939;-75
2021/01/19 02:56:17;;;;;;;;;;;;;;;6.59;52.36;100557.16;4689059;30;20018;-75
2021/01/19 02:58:53;;;;;;;;;;;;;;;6.61;52.64;100559.78;4693065;30;19945;-75
2021/01/19 03:01:24;;;;;;;;;;;;;;;6.60;52.52;100558.03;4691498;30;20038;-75
2021/01/19 03:03:51;;;;;;;;;;;;;;;6.59;52.63;100559.78;4691326;30;19939;-74
2021/01/19 03:06:19;;;;;;;;;;;;;;;6.55;52.86;100550.19;4690077;30;20439;-75
2021/01/19 03:08:47;;;;;;;;;;;;;;;6.56;52.75;100553.72;4686398;30;20010;-75
2021/01/19 03:11:15;;;;;;;;;;;;;;;6.54;52.82;100551.09;4684423;30;19939;-75
2021/01/19 03:13:43;;;;;;;;;;;;;;;6.53;52.91;100538.84;4689269;30;19938;-75
2021/01/19 03:16:11;;;;;;;;;;;;;;;6.53;53.11;100540.63;4693525;30;19946;-75
2021/01/19 03:18:39;;;;;;;;;;;;;;;6.51;53.39;100532.72;4694273;30;19966;-75
2021/01/19 03:21:07;;;;;;;;;;;;;;;6.53;53.33;100536.22;4693511;30;20017;-75
2021/01/19 03:23:35;;;;;;;;;;;;;;;6.52;53.31;100528.38;4688571;30;19989;-75
2021/01/19 03:26:03;;;;;;;;;;;;;;;6.50;53.46;100515.25;4681897;30;20087;-75
2021/01/19 03:28:33;;;;;;;;;;;;;;;6.50;53.48;100512.63;4693963;30;19938;-75
2021/01/19 03:31:01;;;;;;;;;;;;;;;6.48;53.36;100511.75;4693798;30;19943;-75
2021/01/19 03:33:29;;;;;;;;;;;;;;;6.47;53.52;100508.28;4693962;30;20345;-75
2021/01/19 03:35:55;;;;;;;;;;;;;;;6.46;53.43;100501.28;4690929;30;19942;-74
2021/01/19 03:38:23;;;;;;;;;;;;;;;6.46;53.50;100503.00;4684004;30;19939;-75
2021/01/19 03:40:50;;;;;;;;;;;;;;;6.44;53.51;100502.19;4689625;30;19966;-74
2021/01/19 03:43:17;;;;;;;;;;;;;;;6.43;53.74;100501.28;4691359;30;20552;-75
2021/01/19 03:45:44;;;;;;;;;;;;;;;6.45;53.65;100498.69;4687952;30;19939;-75
2021/01/19 03:48:10;;;;;;;;;;;;;;;6.43;53.68;100496.03;4691648;30;20433;-75
2021/01/19 03:50:38;;;;;;;;;;;;;;;6.42;53.56;100488.19;4670941;30;19935;-75
2021/01/19 03:53:05;;;;;;;;;;;;;;;6.41;53.91;100484.69;4666790;30;19975;-75
2021/01/19 03:55:32;;;;;;;;;;;;;;;6.39;53.89;100493.50;4676115;30;20329;-75
2021/01/19 03:57:59;;;;;;;;;;;;;;;6.40;53.98;100500.50;4691944;30;19994;-75
2021/01/19 04:00:30;;;;;;;;;;;;;;;6.38;53.85;100502.25;4694189;30;19941;-75
2021/01/19 04:02:57;;;;;;;;;;;;;;;6.37;53.92;100504.03;4693311;30;19972;-75
2021/01/19 04:05:23;;;;;;;;;;;;;;;6.36;54.13;100502.28;4692548;30;19935;-75
2021/01/19 04:07:51;;;;;;;;;;;;;;;6.40;53.97;100505.75;4692146;30;20378;-75
2021/01/19 04:10:18;;;;;;;;;;;;;;;6.52;53.60;100508.19;4692951;30;20432;-75
2021/01/19 04:12:47;;;;;;;;;;;;;;;6.55;53.62;100504.66;4696238;30;19962;-75
2021/01/19 04:15:14;;;;;;;;;;;;;;;6.56;53.53;100496.75;4693837;30;19957;-74
2021/01/19 04:17:41;;;;;;;;;;;;;;;6.58;53.55;100512.47;4690422;30;20386;-75
2021/01/19 04:20:09;;;;;;;;;;;;;;;6.69;52.16;100505.31;4690790;30;20390;-75
2021/01/19 04:22:36;;;;;;;;;;;;;;;6.76;50.77;100508.72;4692987;30;19938;-75
2021/01/19 04:25:03;;;;;;;;;;;;;;;6.82;49.40;100509.47;4695522;30;19975;-75
2021/01/19 04:27:30;;;;;;;;;;;;;;;6.88;48.91;100502.41;4695957;30;19939;-75
2021/01/19 04:29:58;;;;;;;;;;;;;;;6.93;47.82;100493.56;4690673;30;19975;-75
2021/01/19 04:32:25;;;;;;;;;;;;;;;6.95;47.07;100491.75;4695910;30;19949;-76
2021/01/19 04:34:52;;;;;;;;;;;;;;;6.98;46.14;100483.81;4690377;30;20053;-75
2021/01/19 04:37:18;;;;;;;;;;;;;;;7.04;45.56;100490.75;4692299;30;20001;-75
2021/01/19 04:39:45;;;;;;;;;;;;;;;7.07;45.07;100482.78;4692237;30;19946;-75
2021/01/19 04:42:18;;;;;;;;;;;;;;;7.12;44.98;100482.72;4687783;30;19942;-75
2021/01/19 04:44:45;;;;;;;;;;;;;;;7.12;44.56;100472.19;4689469;30;19937;-75
2021/01/19 04:47:13;;;;;;;;;;;;;;;7.10;44.58;100469.56;4689930;30;20013;-75
2021/01/19 04:49:39;;;;;;;;;;;;;;;6.91;45.10;100463.78;4686088;30;19937;-75
2021/01/19 04:52:09;;;;;;;;;;;;;;;6.79;45.72;100467.47;4673288;30;19942;-75
2021/01/19 04:54:41;;;;;;;;;;;;;;;6.71;46.44;100465.84;4692351;30;19939;-75
2021/01/19 04:57:14;;;;;;;;;;;;;;;6.64;46.97;100465.97;4694444;30;19943;-75
2021/01/19 04:59:50;;;;;;;;;;;;;;;6.60;47.39;100463.41;4695264;30;19941;-75
2021/01/19 05:02:36;;;;;;;;;;;;;;;6.54;48.02;100466.13;4670355;30;19963;-75
2021/01/19 05:05:20;;;;;;;;;;;;;;;6.51;48.59;100456.50;4685024;30;20301;-75
2021/01/19 05:08:20;;;;;;;;;;;;;;;6.52;49.34;100453.00;4686375;30;19942;-75
2021/01/19 05:10:48;;;;;;;;;;;;;;;6.47;49.16;100444.31;4691879;30;19985;-74
2021/01/19 05:13:15;;;;;;;;;;;;;;;6.46;49.62;100426.81;4690182;30;19942;-75
2021/01/19 05:15:43;;;;;;;;;;;;;;;6.41;49.82;100432.16;4688392;30;19957;-75
2021/01/19 05:18:11;;;;;;;;;;;;;;;6.42;50.00;100428.63;4688518;30;20055;-75
2021/01/19 05:20:43;;;;;;;;;;;;;;;6.40;50.40;100429.56;4676140;30;20045;-75
2021/01/19 05:23:12;;;;;;;;;;;;;;;6.40;50.48;100433.03;4690988;30;19935;-75
2021/01/19 05:25:39;;;;;;;;;;;;;;;6.37;50.73;100424.31;4693927;30;19970;-75
2021/01/19 05:28:06;;;;;;;;;;;;;;;6.37;50.75;100424.31;4690651;30;19935;-75
2021/01/19 05:30:34;;;;;;;;;;;;;;;6.36;51.13;100426.09;4688514;30;19939;-75
2021/01/19 05:33:01;;;;;;;;;;;;;;;6.33;51.40;100420.91;4686586;30;19935;-75
2021/01/19 05:35:29;;;;;;;;;;;;;;;6.34;51.01;100412.09;4692241;30;19935;-75
2021/01/19 05:37:57;;;;;;;;;;;;;;;6.34;51.59;100413.88;4693296;30;19935;-75
2021/01/19 05:40:24;;;;;;;;;;;;;;;6.32;51.62;100408.66;4690711;30;19946;-75
2021/01/19 05:42:51;;;;;;;;;;;;;;;6.32;51.63;100408.66;4692062;30;19931;-75
2021/01/19 05:45:18;;;;;;;;;;;;;;;6.31;51.88;100404.28;4690803;30;20240;-75
2021/01/19 05:47:45;;;;;;;;;;;;;;;6.27;52.09;100390.31;4689221;30;20024;-75
2021/01/19 05:50:12;;;;;;;;;;;;;;;6.28;51.99;100383.31;4688720;30;19940;-75
2021/01/19 05:52:41;;;;;;;;;;;;;;;6.27;52.05;100379.81;4689283;30;19990;-75
2021/01/19 05:55:09;;;;;;;;;;;;;;;6.26;52.23;100385.94;4689677;30;19943;-74
2021/01/19 05:57:36;;;;;;;;;;;;;;;6.27;52.32;100384.19;4690711;30;19961;-74
2021/01/19 06:00:04;;;;;;;;;;;;;;;6.24;52.44;100387.75;4690779;30;19931;-75
2021/01/19 06:02:38;;;;;;;;;;;;;;;6.25;52.67;100380.72;4690766;30;20736;-75
2021/01/19 06:05:07;;;;;;;;;;;;;;;6.24;52.57;100379.00;4680207;30;20321;-75
2021/01/19 06:07:37;;;;;;;;;;;;;;;6.22;52.83;100375.53;4680422;30;19957;-74
2021/01/19 06:10:08;;;;;;;;;;;;;;;6.23;52.82;100364.13;4688874;30;19968;-75
2021/01/19 06:12:35;;;;;;;;;;;;;;;6.21;52.75;100365.91;4690419;30;20041;-74
2021/01/19 06:15:03;;;;;;;;;;;;;;;6.23;52.87;100370.25;4685526;30;19981;-75
2021/01/19 06:17:29;;;;;;;;;;;;;;;6.21;53.07;100356.28;4688107;30;20030;-75
2021/01/19 06:19:58;;;;;;;;;;;;;;;6.21;53.15;100360.66;4693447;30;19966;-75
2021/01/19 06:22:25;;;;;;;;;;;;;;;6.19;53.18;100363.31;4693029;30;20003;-75
2021/01/19 06:24:54;;;;;;;;;;;;;;;6.19;53.14;100358.06;4688282;30;20206;-75
2021/01/19 06:27:29;;;;;;;;;;;;;;;6.17;53.34;100354.56;4684799;30;19946;-74
2021/01/19 06:30:08;;;;;;;;;;;;;;;6.19;53.44;100354.56;4687209;30;20040;-75
2021/01/19 06:32:36;;;;;;;;;;;;;;;6.18;53.54;100356.31;4693278;30;20340;-74
2021/01/19 06:35:10;;;;;;;;;;;;;;;6.17;53.48;100357.19;4694138;30;20798;-75
2021/01/19 06:37:38;;;;;;;;;;;;;;;6.16;53.24;100355.47;4691014;30;19935;-74
2021/01/19 06:40:08;;;;;;;;;;;;;;;6.16;53.69;100347.59;4675876;30;20100;-73
2021/01/19 06:42:37;;;;;;;;;;;;;;;6.13;53.67;100339.75;4688386;30;19935;-74
2021/01/19 06:45:06;;;;;;;;;;;;;;;6.15;53.71;100343.22;4677022;30;19989;-75
2021/01/19 06:47:36;;;;;;;;;;;;;;;6.14;53.62;100338.88;4674259;30;20030;-74
2021/01/19 06:50:06;;;;;;;;;;;;;;;6.13;54.00;100335.38;4693270;30;19967;-75
2021/01/19 06:52:38;;;;;;;;;;;;;;;6.12;53.99;100336.25;4687732;30;19935;-75
2021/01/19 06:55:06;;;;;;;;;;;;;;;6.12;54.11;100331.00;4675826;30;19942;-74
2021/01/19 06:57:40;;;;;;;;;;;;;;;6.14;53.90;100329.22;4675880;30;20306;-74
2021/01/19 07:00:10;;;;;;;;;;;;;;;6.12;54.01;100330.13;4673607;30;20417;-75
2021/01/19 07:02:40;;;;;;;;;;;;;;;6.11;53.94;100329.28;4688414;30;20014;-73
2021/01/19 07:05:12;;;;;;;;;;;;;;;6.10;54.12;100327.53;4677085;30;20424;-74
2021/01/19 07:07:41;;;;;;;;;;;;;;;6.10;54.20;100327.53;4690409;30;19938;-74
2021/01/19 07:10:09;;;;;;;;;;;;;;;6.10;54.27;100321.41;4669490;30;20029;-74
2021/01/19 07:12:55;;;;;;;;;;;;;;;6.09;54.35;100325.81;4687735;30;20412;-75
2021/01/19 07:15:33;;;;;;;;;;;;;;;6.09;54.53;100315.31;4689637;30;20386;-74
2021/01/19 07:18:16;;;;;;;;;;;;;;;6.09;54.67;100311.81;4675031;30;20319;-74
2021/01/19 07:20:54;;;;;;;;;;;;;;;6.09;54.77;100319.69;4690818;30;19935;-75
2021/01/19 07:23:28;;;;;;;;;;;;;;;6.08;54.72;100310.06;4680615;30;20463;-75
2021/01/19 07:25:55;;;;;;;;;;;;;;;6.08;54.78;100312.69;4688226;30;19942;-75
2021/01/19 07:28:22;;;;;;;;;;;;;;;6.08;54.56;100315.31;4691677;30;20433;-75
2021/01/19 07:30:49;;;;;;;;;;;;;;;6.17;54.09;100309.06;4676104;30;20309;-75
2021/01/19 07:33:17;;;;;;;;;;;;;;;6.33;52.87;100300.03;4676961;30;19958;-74
2021/01/19 07:35:44;;;;;;;;;;;;;;;6.46;51.42;100303.31;4691421;30;19954;-75
2021/01/19 07:38:11;;;;;;;;;;;;;;;6.57;50.05;100298.72;4680017;30;20050;-75
2021/01/19 07:40:44;;;;;;;;;;;;;;;6.63;48.71;100292.50;4691605;30;20026;-75
2021/01/19 07:43:15;;;;;;;;;;;;;;;6.67;47.96;100295.94;4672990;30;19961;-75
2021/01/19 07:45:51;;;;;;;;;;;;;;;6.71;47.35;100295.88;4689654;30;20033;-74
2021/01/19 07:48:28;;;;;;;;;;;;;;;6.79;46.77;100288.69;4689766;30;19939;-74
2021/01/19 07:50:55;;;;;;;;;;;;;;;6.82;46.04;100287.75;4677796;30;19952;-75
2021/01/19 07:53:22;;;;;;;;;;;;;;;6.72;46.98;100292.31;4689467;30;20123;-76
2021/01/19 07:55:52;;;;;;;;;;;;;;;6.59;48.42;100291.69;4693359;30;19942;-73
2021/01/19 07:58:20;;;;;;;;;;;;;;;6.56;49.14;100289.09;4693699;30;19942;-75
2021/01/19 08:00:47;;;;;;;;;;;;;;;6.56;49.50;100291.72;4679712;30;20365;-74
2021/01/19 08:03:15;;;;;;;;;;;;;;;6.70;48.47;100288.88;4690521;30;19935;-76
2021/01/19 08:05:42;;;;;;;;;;;;;;;6.79;47.61;100288.69;4675516;30;19942;-75
2021/01/19 08:08:13;;;;;;;;;;;;;;;6.82;46.13;100272.84;4674993;30;19935;-75
2021/01/19 08:10:40;;;;;;;;;;;;;;;6.90;45.52;100271.84;4681012;30;20014;-75
2021/01/19 08:13:16;;;;;;;;;;;;;;;6.96;45.08;100271.69;4692650;30;20077;-75
2021/01/19 08:15:43;;;;;;;;;;;;;;;7.00;44.27;100257.63;4669002;30;20274;-75
2021/01/19 08:18:16;;;;;;;;;;;;;;;6.95;44.83;100262.09;4670503;30;19944;-74
2021/01/19 08:20:53;;;;;;;;;;;;;;;6.75;45.60;100251.97;4680322;30;19943;-75
2021/01/19 08:23:24;;;;;;;;;;;;;;;6.64;46.03;100258.31;4671462;30;19935;-76
2021/01/19 08:25:51;;;;;;;;;;;;;;;6.56;46.83;100251.47;4684251;30;20370;-75
2021/01/19 08:28:19;;;;;;;;;;;;;;;6.52;47.45;100249.78;4694760;30;19981;-75
2021/01/19 08:30:47;;;;;;;;;;;;;;;6.48;47.99;100252.44;4689033;30;19954;-74
2021/01/19 08:33:14;;;;;;;;;;;;;;;6.46;48.53;100250.75;4693464;30;19939;-75
2021/01/19 08:35:43;;;;;;;;;;;;;;;6.44;48.49;100252.56;4674952;30;20018;-74
2021/01/19 08:38:10;;;;;;;;;;;;;;;6.43;49.03;100256.06;4691237;30;19935;-75
2021/01/19 08:40:40;;;;;;;;;;;;;;;6.41;49.40;100253.47;4693796;30;20005;-75
2021/01/19 08:43:09;;;;;;;;;;;;;;;6.41;49.92;100252.59;4693326;30;19935;-74
2021/01/19 08:45:38;;;;;;;;;;;;;;;6.38;50.11;100253.53;4695685;30;20554;-75
2021/01/19 08:48:07;;;;;;;;;;;;;;;6.38;50.04;100244.78;4692966;30;19931;-76
2021/01/19 08:50:35;;;;;;;;;;;;;;;6.36;50.38;100244.81;4687462;30;19938;-75
2021/01/19 08:53:07;;;;;;;;;;;;;;;6.37;50.83;100248.28;4679379;30;20002;-74
2021/01/19 08:55:34;;;;;;;;;;;;;;;6.37;50.93;100245.66;4665455;30;19982;-75
2021/01/19 08:58:02;;;;;;;;;;;;;;;6.37;51.02;100246.53;4694722;30;19950;-75
2021/01/19 09:00:30;;;;;;;;;;;;;;;6.38;51.36;100243.03;4690445;30;19939;-74
2021/01/19 09:03:17;;;;;;;;;;;;;;;6.39;51.63;100234.22;4671883;30;19953;-75
2021/01/19 09:06:04;;;;;;;;;;;;;;;6.40;51.65;100237.75;4689759;30;19938;-75
2021/01/19 09:08:35;;;;;;;;;;;;;;;6.41;51.90;100228.94;4694427;30;20421;-75
2021/01/19 09:11:03;;;;;;;;;;;;;;;6.39;52.04;100217.59;4694467;30;20033;-75
2021/01/19 09:13:44;;;;;;;;;;;;;;;6.42;52.14;100220.16;4690669;30;20452;-75
2021/01/19 09:16:20;;;;;;;;;;;;;;;6.42;52.10;100209.66;4694297;30;19935;-75
2021/01/19 09:18:51;;;;;;;;;;;;;;;6.41;52.26;100203.56;4689142;30;20137;-75
2021/01/19 09:21:19;;;;;;;;;;;;;;;6.43;52.57;100200.88;4692743;30;19935;-74
2021/01/19 09:23:46;;;;;;;;;;;;;;;6.44;52.55;100197.38;4695868;30;19986;-75
2021/01/19 09:26:13;;;;;;;;;;;;;;;6.44;52.63;100189.50;4695092;30;19946;-75
2021/01/19 09:28:40;;;;;;;;;;;;;;;6.46;52.60;100185.94;4695243;30;19935;-75
2021/01/19 09:31:11;;;;;;;;;;;;;;;6.51;52.65;100177.94;4691220;30;19931;-75
2021/01/19 09:33:38;;;;;;;;;;;;;;;6.54;52.55;100177.03;4690702;30;20014;-75
2021/01/19 09:36:06;;;;;;;;;;;;;;;6.52;52.90;100174.44;4695328;30;19931;-74
2021/01/19 09:38:34;;;;;;;;;;;;;;;6.49;52.93;100169.25;4694889;30;19935;-75
2021/01/19 09:43:47;;;;;;;;;;;;;;;6.50;53.37;100160.47;4675121;30;20005;-75
2021/01/19 09:46:15;;;;;;;;;;;;;;;6.50;53.40;100160.47;4682636;30;19975;-75
2021/01/19 09:48:46;;;;;;;;;;;;;;;6.48;53.58;100157.84;4686194;30;20034;-75
2021/01/19 09:51:13;;;;;;;;;;;;;;;6.47;53.55;100150.88;4688041;30;20010;-75
2021/01/19 09:53:41;;;;;;;;;;;;;;;6.47;53.58;100147.38;4695022;30;20022;-76
2021/01/19 09:56:15;;;;;;;;;;;;;;;6.50;53.70;100149.97;4693172;30;19935;-75
2021/01/19 09:58:43;;;;;;;;;;;;;;;6.51;53.77;100145.56;4677879;30;19941;-75
2021/01/19 10:04:22;;;;;;;;;;;;;;;6.52;53.46;100136.78;4644938;30;19990;-76
2021/01/19 10:07:04;;;;;;;;;;;;;;;6.52;53.71;100127.13;4649689;30;20007;-75
2021/01/19 10:09:31;;;;;;;;;;;;;;;6.52;53.78;100121.88;4652632;30;20026;-75
2021/01/19 10:12:00;;;;;;;;;;;;;;;6.51;53.95;100114.03;4642365;30;19936;-75
2021/01/19 10:14:33;;;;;;;;;;;;;;;6.52;54.09;100111.38;4641929;30;20474;-75
2021/01/19 10:17:16;;;;;;;;;;;;;;;6.56;54.19;100099.03;4633082;30;19940;-74
2021/01/19 10:19:44;;;;;;;;;;;;;;;6.61;54.08;100103.28;4650521;30;19936;-74
2021/01/19 10:22:11;;;;;;;;;;;;;;;6.70;53.66;100101.34;4644975;30;19936;-74
2021/01/19 10:24:48;;;;;;;;;;;;;;;6.72;53.71;100091.69;4641100;30;19938;-75
2021/01/19 10:27:18;;;;;;;;;;;;;;;6.71;54.21;100088.19;4645824;30;19946;-75
2021/01/19 10:29:45;;;;;;;;;;;;;;;6.68;54.20;100079.50;4638873;30;19932;-74
2021/01/19 10:32:13;;;;;;;;;;;;;;;6.69;54.21;100071.56;4644549;30;19932;-74
2021/01/19 10:34:44;;;;;;;;;;;;;;;6.67;54.26;100073.38;4633729;30;19941;-74
2021/01/19 10:37:11;;;;;;;;;;;;;;;6.65;54.62;100068.16;4643356;30;20454;-75
2021/01/19 10:39:46;;;;;;;;;;;;;;;6.82;52.90;100073.03;4636273;30;19942;-75
2021/01/19 10:42:23;;;;;;;;;;;;;;;6.95;51.42;100065.72;4635064;30;20289;-75
2021/01/19 10:44:54;;;;;;;;;;;;;;;7.02;49.70;100063.81;4637713;30;20008;-75
2021/01/19 10:47:21;;;;;;;;;;;;;;;7.10;48.68;100067.13;4644310;30;19936;-76
2021/01/19 10:49:48;;;;;;;;;;;;;;;7.15;47.64;100059.13;4640789;30;19936;-75
2021/01/19 10:52:15;;;;;;;;;;;;;;;7.19;47.23;100058.16;4653372;30;19935;-75
2021/01/19 10:54:42;;;;;;;;;;;;;;;7.24;46.46;100060.69;4643641;30;20010;-75
2021/01/19 10:57:10;;;;;;;;;;;;;;;7.27;46.17;100057.97;4644107;30;19967;-75
2021/01/19 10:59:38;;;;;;;;;;;;;;;7.29;45.85;100045.66;4634756;30;19935;-75
2021/01/19 11:02:05;;;;;;;;;;;;;;;7.33;45.03;100047.28;4648139;30;19932;-75
2021/01/19 11:04:33;;;;;;;;;;;;;;;7.35;44.83;100040.22;4632417;30;19950;-75
2021/01/19 11:07:00;;;;;;;;;;;;;;;7.40;44.33;100040.97;4645938;30;19983;-75
2021/01/19 11:09:27;;;;;;;;;;;;;;;7.34;44.99;100033.25;4638437;30;19943;-75
2021/01/19 11:11:54;;;;;;;;;;;;;;;7.18;46.45;100032.75;4639683;30;19936;-75
2021/01/19 11:14:21;;;;;;;;;;;;;;;7.09;46.85;100028.59;4641110;30;20019;-75
2021/01/19 11:16:49;;;;;;;;;;;;;;;7.00;47.65;100020.94;4644219;30;20034;-75
2021/01/19 11:19:17;;;;;;;;;;;;;;;6.97;48.34;100029.75;4637095;30;19960;-75
2021/01/19 11:21:44;;;;;;;;;;;;;;;6.96;48.51;100017.50;4631804;30;20354;-75
2021/01/19 11:24:12;;;;;;;;;;;;;;;6.92;49.55;100020.22;4635427;30;20035;-75
2021/01/19 11:26:40;;;;;;;;;;;;;;;6.90;49.64;100019.41;4630097;30;19932;-75
2021/01/19 11:29:13;;;;;;;;;;;;;;;6.88;49.76;100010.69;4645530;30;20316;-75
2021/01/19 11:31:40;;;;;;;;;;;;;;;6.87;50.49;100007.19;4650140;30;19943;-75
2021/01/19 11:34:09;;;;;;;;;;;;;;;6.83;50.89;100000.28;4642352;30;19940;-74
2021/01/19 11:36:36;;;;;;;;;;;;;;;6.81;51.02;100002.94;4633652;30;19997;-75
2021/01/19 11:39:04;;;;;;;;;;;;;;;6.81;51.33;99999.44;4615036;30;20430;-75
2021/01/19 11:41:31;;;;;;;;;;;;;;;6.76;51.78;99985.56;4627649;30;20427;-75
2021/01/19 11:43:58;;;;;;;;;;;;;;;6.76;51.21;99982.91;4639799;30;19939;-74
2021/01/19 11:46:26;;;;;;;;;;;;;;;6.78;51.80;99986.41;4634818;30;20676;-74
2021/01/19 11:48:56;;;;;;;;;;;;;;;6.78;52.17;99978.50;4636806;30;19936;-75
2021/01/19 11:51:26;;;;;;;;;;;;;;;6.80;52.21;99980.19;4622198;30;20292;-75
2021/01/19 11:53:54;;;;;;;;;;;;;;;6.79;52.36;99982.88;4638319;30;19940;-75
2021/01/19 11:56:31;;;;;;;;;;;;;;;6.81;52.27;99976.66;4631148;30;19948;-75
2021/01/19 11:58:58;;;;;;;;;;;;;;;6.81;52.48;99971.38;4636972;30;20027;-74
2021/01/19 12:01:25;;;;;;;;;;;;;;;6.81;52.55;99968.75;4640259;30;20041;-74
2021/01/19 12:03:52;;;;;;;;;;;;;;;6.83;52.77;99974.00;4653390;30;19963;-74
2021/01/19 12:06:19;;;;;;;;;;;;;;;6.82;52.68;99959.97;4644476;30;19962;-74
2021/01/19 12:08:47;;;;;;;;;;;;;;;6.87;52.66;99961.63;4648164;30;19936;-74
2021/01/19 12:11:14;;;;;;;;;;;;;;;6.86;52.79;99945.00;4655833;30;20389;-74
2021/01/19 12:13:42;;;;;;;;;;;;;;;6.87;52.67;99941.47;4659642;30;19971;-75
2021/01/19 12:16:09;;;;;;;;;;;;;;;6.85;52.40;99940.63;4642642;30;19947;-75
2021/01/19 12:18:38;;;;;;;;;;;;;;;6.81;53.28;99937.22;4654659;30;20003;-75
2021/01/19 12:21:06;;;;;;;;;;;;;;;6.78;53.77;99939.94;4650872;30;20023;-75
2021/01/19 12:23:33;;;;;;;;;;;;;;;6.78;53.98;99932.03;4655033;30;19935;-75
2021/01/19 12:26:17;;;;;;;;;;;;;;;6.77;53.91;99917.16;4660091;30;19936;-74
2021/01/19 12:28:44;;;;;;;;;;;;;;;6.75;53.54;99907.59;4648428;30;20051;-75
2021/01/19 12:31:11;;;;;;;;;;;;;;;6.78;53.93;99905.75;4662499;30;19940;-73
2021/01/19 12:33:39;;;;;;;;;;;;;;;6.77;53.97;99906.66;4647111;30;20068;-74
2021/01/19 12:36:06;;;;;;;;;;;;;;;6.76;54.04;99901.44;4652075;30;19963;-76
2021/01/19 12:38:33;;;;;;;;;;;;;;;6.77;54.30;99888.25;4642248;30;19936;-75
2021/01/19 12:41:00;;;;;;;;;;;;;;;6.77;54.46;99898.75;4657943;30;19940;-75
2021/01/19 12:43:29;;;;;;;;;;;;;;;6.75;54.87;99891.81;4641709;30;19946;-76
2021/01/19 12:45:56;;;;;;;;;;;;;;;6.72;54.74;99895.38;4658041;30;19971;-75
2021/01/19 12:48:24;;;;;;;;;;;;;;;6.70;54.54;99888.44;4648319;30;19971;-75
2021/01/19 12:50:51;;;;;;;;;;;;;;;6.67;54.92;99876.22;4654008;30;20066;-75
2021/01/19 12:53:17;;;;;;;;;;;;;;;6.65;54.75;99875.44;4651695;30;19936;-74
2021/01/19 12:55:44;;;;;;;;;;;;;;;6.64;54.96;99881.56;4662861;30;19951;-75
2021/01/19 12:58:11;;;;;;;;;;;;;;;6.62;55.21;99883.41;4659281;30;20379;-74
2021/01/19 13:00:38;;;;;;;;;;;;;;;6.61;55.15;99873.78;4652965;30;19947;-74
2021/01/19 13:03:05;;;;;;;;;;;;;;;6.59;55.11;99871.19;4660565;30;19967;-74
2021/01/19 13:05:32;;;;;;;;;;;;;;;6.58;55.19;99860.69;4656532;30;20019;-75